createdAt,value
2022-12-18T00:00:42.442Z,-10.1
2022-12-18T00:03:42.768Z,-10.1
2022-12-18T00:06:42.483Z,-10.1
2022-12-18T00:09:42.463Z,-10.1
2022-12-18T00:12:42.480Z,-10.1
2022-12-18T00:15:42.542Z,-10.1
2022-12-18T00:18:42.606Z,-10.2
2022-12-18T00:21:42.482Z,-10.2
2022-12-18T00:24:42.508Z,-10.3
2022-12-18T00:27:42.513Z,-10.5
2022-12-18T00:30:42.512Z,-10.6
2022-12-18T00:33:42.752Z,-10.6
2022-12-18T00:36:42.523Z,-10.6
2022-12-18T00:39:42.521Z,-10.5
2022-12-18T00:42:42.589Z,-10.5
2022-12-18T00:45:42.593Z,-10.5
2022-12-18T00:48:42.555Z,-10.4
2022-12-18T00:51:42.565Z,-10.4
2022-12-18T00:54:42.567Z,-10.4
2022-12-18T00:57:42.588Z,-10.4
2022-12-18T01:00:42.643Z,-10.5
2022-12-18T01:03:42.590Z,-10.5
2022-12-18T01:06:42.592Z,-10.6
2022-12-18T01:09:42.609Z,-10.6
2022-12-18T01:12:42.615Z,-10.6
2022-12-18T01:15:42.615Z,-10.6
2022-12-18T01:18:42.648Z,-10.6
2022-12-18T01:21:42.638Z,-10.6
2022-12-18T01:24:42.643Z,-10.7
2022-12-18T01:27:42.683Z,-10.6
2022-12-18T01:30:42.659Z,-10.5
2022-12-18T01:33:42.682Z,-10.5
2022-12-18T01:36:42.686Z,-10.4
2022-12-18T01:39:42.690Z,-10.5
2022-12-18T01:42:42.716Z,-10.5
2022-12-18T01:45:42.760Z,-10.5
2022-12-18T01:48:42.720Z,-10.6
2022-12-18T01:51:42.732Z,-10.7
2022-12-18T01:54:42.737Z,-10.7
2022-12-18T01:57:42.763Z,-10.7
2022-12-18T02:00:42.859Z,-10.6
2022-12-18T02:03:42.770Z,-10.6
2022-12-18T02:06:42.778Z,-10.5
2022-12-18T02:09:42.784Z,-10.4
2022-12-18T02:12:42.934Z,-10.4
2022-12-18T02:15:42.809Z,-10.3
2022-12-18T02:18:42.809Z,-10.3
2022-12-18T02:21:42.823Z,-10.3
2022-12-18T02:24:42.844Z,-10.2
2022-12-18T02:27:42.858Z,-10.2
2022-12-18T02:30:42.987Z,-10.2
2022-12-18T02:33:42.858Z,-10.3
2022-12-18T02:36:42.867Z,-10.4
2022-12-18T02:39:42.880Z,-10.5
2022-12-18T02:42:42.891Z,-10.4
2022-12-18T02:45:42.988Z,-10.3
2022-12-18T02:48:43.017Z,-10.3
2022-12-18T02:51:42.896Z,-10.3
2022-12-18T02:54:42.901Z,-10.4
2022-12-18T02:57:42.922Z,-10.5
2022-12-18T03:00:42.912Z,-10.6
2022-12-18T03:03:43.101Z,-10.6
2022-12-18T03:06:43.047Z,-10.7
2022-12-18T03:09:42.929Z,-10.7
2022-12-18T03:12:42.947Z,-10.8
2022-12-18T03:15:42.942Z,-10.7
2022-12-18T03:18:42.937Z,-10.7
2022-12-18T03:21:42.946Z,-10.7
2022-12-18T03:24:43.074Z,-10.7
2022-12-18T03:27:42.965Z,-10.7
2022-12-18T03:30:42.998Z,-10.8
2022-12-18T03:33:43.094Z,-10.9
2022-12-18T03:36:42.966Z,-10.9
2022-12-18T03:39:42.971Z,-11
2022-12-18T03:42:43.110Z,-11
2022-12-18T03:45:43.006Z,-10.9
2022-12-18T03:48:42.984Z,-10.8
2022-12-18T03:51:42.993Z,-10.8
2022-12-18T03:54:42.995Z,-10.8
2022-12-18T03:57:43.026Z,-10.8
2022-12-18T04:00:43.126Z,-10.8
2022-12-18T04:03:43.367Z,-10.8
2022-12-18T04:06:43.008Z,-10.8
2022-12-18T04:09:43.014Z,-10.8
2022-12-18T04:12:43.034Z,-10.8
2022-12-18T04:15:43.052Z,-10.8
2022-12-18T04:18:43.146Z,-10.8
2022-12-18T04:21:43.035Z,-10.9
2022-12-18T04:24:43.037Z,-11
2022-12-18T04:27:43.058Z,-11.1
2022-12-18T04:30:43.113Z,-11.1
2022-12-18T04:33:43.276Z,-11.1
2022-12-18T04:36:43.168Z,-11
2022-12-18T04:39:43.065Z,-10.9
2022-12-18T04:42:43.109Z,-10.9
2022-12-18T04:45:43.066Z,-11
2022-12-18T04:48:43.075Z,-11
2022-12-18T04:51:43.078Z,-11.1
2022-12-18T04:54:43.215Z,-11.1
2022-12-18T04:57:43.099Z,-11.2
2022-12-18T05:00:43.087Z,-11.2
2022-12-18T05:03:43.687Z,-11.2
2022-12-18T05:06:43.104Z,-11.2
2022-12-18T05:09:43.111Z,-11.2
2022-12-18T05:12:49.129Z,-11.1
2022-12-18T05:15:43.296Z,-11.1
2022-12-18T05:18:43.154Z,-11
2022-12-18T05:21:43.139Z,-11
2022-12-18T05:24:43.140Z,-10.9
2022-12-18T05:27:43.147Z,-10.8
2022-12-18T05:30:43.146Z,-10.7
2022-12-18T05:33:43.813Z,-10.7
2022-12-18T05:36:43.155Z,-10.7
2022-12-18T05:39:43.161Z,-10.7
2022-12-18T05:42:43.179Z,-10.6
2022-12-18T05:45:43.167Z,-10.5
2022-12-18T05:48:43.172Z,-10.4
2022-12-18T05:51:43.298Z,-10.4
2022-12-18T05:54:43.186Z,-10.3
2022-12-18T05:57:43.198Z,-10.4
2022-12-18T06:00:43.194Z,-10.4
2022-12-18T06:03:43.597Z,-10.4
2022-12-18T06:06:43.202Z,-10.4
2022-12-18T06:09:43.326Z,-10.5
2022-12-18T06:12:43.232Z,-10.5
2022-12-18T06:15:43.215Z,-10.5
2022-12-18T06:18:43.220Z,-10.5
2022-12-18T06:21:43.234Z,-10.6
2022-12-18T06:24:43.228Z,-10.6
2022-12-18T06:27:43.360Z,-10.6
2022-12-18T06:30:43.234Z,-10.7
2022-12-18T06:33:43.397Z,-10.7
2022-12-18T06:36:43.243Z,-10.8
2022-12-18T06:39:43.250Z,-10.8
2022-12-18T06:42:43.269Z,-10.8
2022-12-18T06:45:43.460Z,-10.9
2022-12-18T06:48:43.263Z,-10.9
2022-12-18T06:51:43.269Z,-11
2022-12-18T06:54:43.269Z,-11
2022-12-18T06:57:43.288Z,-11
2022-12-18T07:00:43.308Z,-11.1
2022-12-18T07:03:44.167Z,-11.1
2022-12-18T07:06:43.298Z,-11.2
2022-12-18T07:09:43.300Z,-11.1
2022-12-18T07:12:43.322Z,-11.1
2022-12-18T07:15:43.307Z,-11.1
2022-12-18T07:18:43.318Z,-11.1
2022-12-18T07:21:43.440Z,-11.1
2022-12-18T07:24:43.329Z,-11.1
2022-12-18T07:27:43.338Z,-11.2
2022-12-18T07:30:43.335Z,-11.2
2022-12-18T07:33:43.478Z,-11.2
2022-12-18T07:36:43.357Z,-11.2
2022-12-18T07:39:43.473Z,-11.1
2022-12-18T07:42:43.360Z,-11.1
2022-12-18T07:45:43.393Z,-11.1
2022-12-18T07:48:43.395Z,-11.1
2022-12-18T07:51:43.373Z,-11.1
2022-12-18T07:54:43.366Z,-11
2022-12-18T07:57:52.628Z,-10.9
2022-12-18T08:00:43.369Z,-10.8
2022-12-18T08:03:43.464Z,-10.7
2022-12-18T08:06:47.508Z,-10.6
2022-12-18T08:09:43.396Z,-10.4
2022-12-18T08:12:43.404Z,-10.3
2022-12-18T08:15:43.524Z,-10.1
2022-12-18T08:18:43.404Z,-10
2022-12-18T08:21:43.410Z,-9.8
2022-12-18T08:24:43.407Z,-9.5
2022-12-18T08:27:43.424Z,-9.2
2022-12-18T08:30:43.470Z,-9
2022-12-18T08:33:43.939Z,-8.7
2022-12-18T08:36:43.435Z,-8.4
2022-12-18T08:39:43.435Z,-8.1
2022-12-18T08:42:43.456Z,-7.8
2022-12-18T08:45:43.514Z,-7.6
2022-12-18T08:48:43.441Z,-7.4
2022-12-18T08:51:43.574Z,-7.1
2022-12-18T08:54:43.456Z,-7
2022-12-18T08:57:43.478Z,-6.9
2022-12-18T09:00:43.472Z,-6.7
2022-12-18T09:03:44.062Z,-6.6
2022-12-18T09:06:43.480Z,-6.4
2022-12-18T09:09:43.603Z,-6.3
2022-12-18T09:12:43.500Z,-6.2
2022-12-18T09:15:43.491Z,-6
2022-12-18T09:18:43.684Z,-5.8
2022-12-18T09:21:47.694Z,-5.6
2022-12-18T09:24:43.500Z,-5.4
2022-12-18T09:27:43.641Z,-5.3
2022-12-18T09:30:43.587Z,-5.1
2022-12-18T09:33:43.519Z,-5
2022-12-18T09:36:43.522Z,-4.9
2022-12-18T09:39:43.529Z,-4.9
2022-12-18T09:42:43.545Z,-4.8
2022-12-18T09:45:43.657Z,-4.8
2022-12-18T09:48:43.800Z,-4.6
2022-12-18T09:51:43.543Z,-4.4
2022-12-18T09:54:43.544Z,-4.3
2022-12-18T09:57:43.555Z,-4.1
2022-12-18T10:00:43.559Z,-4.1
2022-12-18T10:03:43.667Z,-3.9
2022-12-18T10:06:43.560Z,-3.8
2022-12-18T10:09:43.565Z,-3.7
2022-12-18T10:12:43.580Z,-3.5
2022-12-18T10:15:43.613Z,-3.3
2022-12-18T10:18:43.787Z,-3.2
2022-12-18T10:21:43.717Z,-3.3
2022-12-18T10:24:43.605Z,-3.4
2022-12-18T10:27:43.617Z,-3.6
2022-12-18T10:30:43.676Z,-3.7
2022-12-18T10:33:43.608Z,-3.6
2022-12-18T10:36:43.603Z,-3.7
2022-12-18T10:39:43.729Z,-3.8
2022-12-18T10:42:43.624Z,-3.9
2022-12-18T10:45:43.617Z,-3.8
2022-12-18T10:48:44.015Z,-3.6
2022-12-18T10:51:43.624Z,-3.3
2022-12-18T10:54:43.635Z,-3.3
2022-12-18T10:57:43.770Z,-3.3
2022-12-18T11:00:43.641Z,-3.3
2022-12-18T11:03:43.681Z,-3.2
2022-12-18T11:06:43.647Z,-3.3
2022-12-18T11:09:43.652Z,-3.5
2022-12-18T11:12:43.675Z,-3.6
2022-12-18T11:15:43.860Z,-3.6
2022-12-18T11:18:43.940Z,-3.6
2022-12-18T11:21:43.672Z,-3.5
2022-12-18T11:24:43.679Z,-3.5
2022-12-18T11:27:43.694Z,-3.6
2022-12-18T11:30:43.686Z,-3.6
2022-12-18T11:33:58.637Z,-3.6
2022-12-18T11:36:43.697Z,-3.6
2022-12-18T11:39:43.701Z,-3.7
2022-12-18T11:42:43.713Z,-3.7
2022-12-18T11:45:43.706Z,-3.8
2022-12-18T11:48:44.001Z,-3.8
2022-12-18T11:51:43.835Z,-3.8
2022-12-18T11:54:43.716Z,-3.8
2022-12-18T11:57:43.735Z,-3.8
2022-12-18T12:00:43.732Z,-3.8
2022-12-18T12:03:44.115Z,-3.7
2022-12-18T12:06:43.748Z,-3.6
2022-12-18T12:09:43.864Z,-3.5
2022-12-18T12:12:47.993Z,-3.4
2022-12-18T12:15:43.746Z,-3.3
2022-12-18T12:18:43.752Z,-3.3
2022-12-18T12:21:43.756Z,-3.3
2022-12-18T12:24:43.762Z,-3.3
2022-12-18T12:27:43.897Z,-3.3
2022-12-18T12:30:43.775Z,-3.4
2022-12-18T12:33:44.051Z,-3.3
2022-12-18T12:36:43.780Z,-3.2
2022-12-18T12:39:43.792Z,-3.1
2022-12-18T12:42:43.802Z,-3
2022-12-18T12:45:43.995Z,-2.9
2022-12-18T12:48:44.237Z,-2.9
2022-12-18T12:51:43.809Z,-2.8
2022-12-18T12:54:43.806Z,-2.8
2022-12-18T12:57:43.821Z,-2.7
2022-12-18T13:00:43.885Z,-2.7
2022-12-18T13:03:44.337Z,-2.6
2022-12-18T13:06:44.793Z,-2.6
2022-12-18T13:09:43.823Z,-2.6
2022-12-18T13:12:43.839Z,-2.6
2022-12-18T13:15:43.831Z,-2.6
2022-12-18T13:18:44.276Z,-2.6
2022-12-18T13:21:43.968Z,-2.6
2022-12-18T13:24:43.836Z,-2.6
2022-12-18T13:27:43.851Z,-2.6
2022-12-18T13:30:43.837Z,-2.7
2022-12-18T13:34:09.347Z,-2.8
2022-12-18T13:36:43.842Z,-2.8
2022-12-18T13:39:43.978Z,-2.9
2022-12-18T13:42:43.862Z,-2.9
2022-12-18T13:45:43.871Z,-2.9
2022-12-18T13:48:43.878Z,-3
2022-12-18T13:51:43.888Z,-3.1
2022-12-18T13:54:43.895Z,-3.1
2022-12-18T13:57:44.044Z,-3.2
2022-12-18T14:00:44.001Z,-3.3
2022-12-18T14:03:43.979Z,-3.4
2022-12-18T14:06:43.934Z,-3.5
2022-12-18T14:09:43.942Z,-3.6
2022-12-18T14:12:43.960Z,-3.7
2022-12-18T14:15:44.073Z,-3.8
2022-12-18T14:18:44.493Z,-3.8
2022-12-18T14:21:43.959Z,-3.9
2022-12-18T14:24:43.962Z,-4
2022-12-18T14:27:43.979Z,-4
2022-12-18T14:30:43.993Z,-4.1
2022-12-18T14:33:44.179Z,-4.1
2022-12-18T14:36:44.028Z,-4.3
2022-12-18T14:39:44.002Z,-4.3
2022-12-18T14:42:44.010Z,-4.3
2022-12-18T14:45:44.432Z,-4.4
2022-12-18T14:48:44.005Z,-4.4
2022-12-18T14:51:44.126Z,-4.5
2022-12-18T14:54:44.012Z,-4.5
2022-12-18T14:57:44.027Z,-4.5
2022-12-18T15:00:44.020Z,-4.6
2022-12-18T15:03:44.361Z,-4.6
2022-12-18T15:06:44.032Z,-4.7
2022-12-18T15:09:44.156Z,-4.7
2022-12-18T15:12:44.054Z,-4.7
2022-12-18T15:15:44.074Z,-4.7
2022-12-18T15:18:44.058Z,-4.8
2022-12-18T15:21:44.060Z,-4.8
2022-12-18T15:24:44.060Z,-4.8
2022-12-18T15:27:44.197Z,-4.8
2022-12-18T15:30:44.103Z,-4.8
2022-12-18T15:33:44.344Z,-4.9
2022-12-18T15:36:44.080Z,-4.9
2022-12-18T15:39:44.084Z,-4.9
2022-12-18T15:42:44.101Z,-4.9
2022-12-18T15:45:44.215Z,-4.9
2022-12-18T15:48:44.100Z,-4.9
2022-12-18T15:51:44.106Z,-4.9
2022-12-18T15:54:44.125Z,-4.9
2022-12-18T15:57:44.161Z,-4.9
2022-12-18T16:00:44.123Z,-4.9
2022-12-18T16:03:44.719Z,-4.9
2022-12-18T16:07:13.085Z,-4.8
2022-12-18T16:09:44.134Z,-4.8
2022-12-18T16:12:44.144Z,-4.8
2022-12-18T16:15:44.198Z,-4.8
2022-12-18T16:18:44.142Z,-4.8
2022-12-18T16:21:44.267Z,-4.8
2022-12-18T16:24:44.154Z,-4.8
2022-12-18T16:27:44.170Z,-4.8
2022-12-18T16:30:44.194Z,-4.8
2022-12-18T16:33:44.616Z,-4.7
2022-12-18T16:36:44.176Z,-4.7
2022-12-18T16:39:44.295Z,-4.7
2022-12-18T16:42:44.188Z,-4.8
2022-12-18T16:45:44.185Z,-4.8
2022-12-18T16:48:44.190Z,-4.7
2022-12-18T16:51:44.191Z,-4.8
2022-12-18T16:54:44.202Z,-4.8
2022-12-18T16:57:44.349Z,-4.8
2022-12-18T17:00:44.209Z,-4.8
2022-12-18T17:03:44.936Z,-4.9
2022-12-18T17:06:44.216Z,-4.9
2022-12-18T17:09:44.227Z,-4.8
2022-12-18T17:12:44.241Z,-4.8
2022-12-18T17:15:44.443Z,-4.8
2022-12-18T17:18:44.241Z,-4.8
2022-12-18T17:21:44.246Z,-4.8
2022-12-18T17:24:44.259Z,-4.8
2022-12-18T17:27:44.295Z,-4.7
2022-12-18T17:30:44.263Z,-4.7
2022-12-18T17:33:44.576Z,-4.7
2022-12-18T17:36:44.286Z,-4.7
2022-12-18T17:39:44.283Z,-4.7
2022-12-18T17:42:44.295Z,-4.7
2022-12-18T17:45:44.283Z,-4.6
2022-12-18T17:48:44.286Z,-4.6
2022-12-18T17:51:44.415Z,-4.6
2022-12-18T17:54:44.294Z,-4.6
2022-12-18T17:57:44.306Z,-4.6
2022-12-18T18:00:44.295Z,-4.5
2022-12-18T18:03:44.747Z,-4.5
2022-12-18T18:06:44.315Z,-4.5
2022-12-18T18:09:44.443Z,-4.4
2022-12-18T18:12:44.344Z,-4.4
2022-12-18T18:15:44.333Z,-4.4
2022-12-18T18:18:44.334Z,-4.4
2022-12-18T18:21:44.344Z,-4.3
2022-12-18T18:24:44.340Z,-4.3
2022-12-18T18:27:44.472Z,-4.3
2022-12-18T18:30:44.345Z,-4.3
2022-12-18T18:33:44.402Z,-4.3
2022-12-18T18:36:44.358Z,-4.2
2022-12-18T18:39:44.365Z,-4.2
2022-12-18T18:42:44.382Z,-4.2
2022-12-18T18:45:44.536Z,-4.1
2022-12-18T18:48:44.388Z,-4.1
2022-12-18T18:51:44.391Z,-4
2022-12-18T18:55:04.101Z,-4
2022-12-18T18:57:44.407Z,-4
2022-12-18T19:00:44.403Z,-4
2022-12-18T19:03:44.642Z,-4
2022-12-18T19:06:44.413Z,-3.9
2022-12-18T19:09:44.429Z,-3.9
2022-12-18T19:12:44.421Z,-3.9
2022-12-18T19:15:44.431Z,-3.9
2022-12-18T19:18:44.620Z,-3.9
2022-12-18T19:21:44.545Z,-3.9
2022-12-18T19:24:44.430Z,-3.8
2022-12-18T19:27:44.444Z,-3.8
2022-12-18T19:30:44.438Z,-3.7
2022-12-18T19:33:44.662Z,-3.7
2022-12-18T19:36:44.454Z,-3.7
2022-12-18T19:39:44.571Z,-3.7
2022-12-18T19:42:44.463Z,-3.7
2022-12-18T19:45:44.497Z,-3.7
2022-12-18T19:48:44.916Z,-3.6
2022-12-18T19:51:44.473Z,-3.6
2022-12-18T19:54:44.473Z,-3.5
2022-12-18T19:57:44.616Z,-3.4
2022-12-18T20:00:44.560Z,-3.4
2022-12-18T20:03:44.935Z,-3.4
2022-12-18T20:06:44.498Z,-3.3
2022-12-18T20:09:44.499Z,-3.3
2022-12-18T20:12:44.514Z,-3.2
2022-12-18T20:15:45.416Z,-3.2
2022-12-18T20:18:44.513Z,-3.2
2022-12-18T20:21:44.554Z,-3.2
2022-12-18T20:24:44.523Z,-3.2
2022-12-18T20:27:44.576Z,-3.2
2022-12-18T20:30:44.549Z,-3.1
2022-12-18T20:33:45.184Z,-3.1
2022-12-18T20:36:44.538Z,-3
2022-12-18T20:39:44.717Z,-3
2022-12-18T20:42:44.630Z,-3
2022-12-18T20:45:44.614Z,-2.9
2022-12-18T20:48:44.559Z,-3
2022-12-18T20:51:44.681Z,-3
2022-12-18T20:54:44.570Z,-3
2022-12-18T20:57:44.586Z,-2.9
2022-12-18T21:00:44.580Z,-2.9
2022-12-18T21:03:44.612Z,-2.9
2022-12-18T21:06:49.358Z,-2.9
2022-12-18T21:09:44.721Z,-2.9
2022-12-18T21:12:45.412Z,-2.9
2022-12-18T21:15:44.599Z,-2.9
2022-12-18T21:18:44.603Z,-2.9
2022-12-18T21:21:44.606Z,-2.9
2022-12-18T21:24:44.615Z,-2.9
2022-12-18T21:27:44.747Z,-2.9
2022-12-18T21:30:44.659Z,-2.9
2022-12-18T21:33:44.625Z,-2.9
2022-12-18T21:36:44.627Z,-2.9
2022-12-18T21:39:44.631Z,-2.9
2022-12-18T21:42:44.646Z,-2.9
2022-12-18T21:45:50.589Z,-2.9
2022-12-18T21:48:44.768Z,-2.9
2022-12-18T21:51:44.652Z,-2.8
2022-12-18T21:54:44.661Z,-2.8
2022-12-18T21:57:44.675Z,-2.8
2022-12-18T22:00:48.610Z,-2.7
2022-12-18T22:03:44.692Z,-2.6
2022-12-18T22:06:44.803Z,-2.5
2022-12-18T22:09:44.682Z,-2.5
2022-12-18T22:12:45.828Z,-2.5
2022-12-18T22:15:44.742Z,-2.5
2022-12-18T22:18:44.692Z,-2.5
2022-12-18T22:21:45.491Z,-2.5
2022-12-18T22:24:44.820Z,-2.5
2022-12-18T22:27:44.712Z,-2.4
2022-12-18T22:30:44.763Z,-2.4
2022-12-18T22:33:44.723Z,-2.4
2022-12-18T22:36:44.720Z,-2.4
2022-12-18T22:39:44.726Z,-2.4
2022-12-18T22:42:44.866Z,-2.4
2022-12-18T22:45:44.734Z,-2.4
2022-12-18T22:48:44.745Z,-2.4
2022-12-18T22:51:44.754Z,-2.4
2022-12-18T22:54:44.761Z,-2.4
2022-12-18T22:57:45.059Z,-2.4
2022-12-18T23:00:44.878Z,-2.4
2022-12-18T23:03:44.802Z,-2.4
2022-12-18T23:06:44.777Z,-2.4
2022-12-18T23:09:44.772Z,-2.4
2022-12-18T23:12:44.793Z,-2.4
2022-12-18T23:15:44.873Z,-2.4
2022-12-18T23:18:44.900Z,-2.4
2022-12-18T23:21:44.789Z,-2.3
2022-12-18T23:24:44.794Z,-2.3
2022-12-18T23:27:44.812Z,-2.3
2022-12-18T23:30:44.813Z,-2.3
2022-12-18T23:33:44.806Z,-2.3
2022-12-18T23:36:46.096Z,-2.3
2022-12-18T23:39:44.813Z,-2.3
2022-12-18T23:42:44.832Z,-2.3
2022-12-18T23:45:44.822Z,-2.2
2022-12-18T23:48:44.830Z,-2.2
2022-12-18T23:51:44.826Z,-2.2
2022-12-18T23:54:44.961Z,-2.2
2022-12-18T23:57:44.884Z,-2.1
